^^
Saratoga-Weather Station Historical Data
Daily Summary for June 29, 2022 Units:  Metric    English   Both
Daily Weekly Monthly Yearly Custom
  High: Low: Average:
Temperature: 18.6 °C 17.2 °C 18.1 °C
Dew Point: 14.1 °C 12.1 °C 13.2 °C
Humidity: 77% 69% 73%
Wind Speed: 1.4km/h 0km/h 0km/h
Wind Gust: 3.2km/h - -
Wind- - WSW
Pressure: 1014.9 hPa 1012.9 hPa -
Precipitation: 0.0 mm    
Historical Graphs
 
 
Tabular Data for June 29, 2022
Time Temperature Dew Point Pressure Wind Wind Speed Wind Gust Humidity Rainfall Rate (Hourly) solar
00:03 18.6 °C 13.2 °C 1014.6 hPa Calm     71% 0.0 mm 0 W/m2
00:08 18.6 °C 13.2 °C 1014.9 hPa Calm     71% 0.0 mm 0 W/m2
00:13 18.6 °C 13.2 °C 1014.6 hPa Calm   1.6 km/h 71% 0.0 mm 0 W/m2
00:18 18.6 °C 13.5 °C 1014.9 hPa Calm     72% 0.0 mm 0 W/m2
00:23 18.4 °C 13.3 °C 1014.9 hPa Calm   1.6 km/h 72% 0.0 mm 0 W/m2
00:28 18.3 °C 13.2 °C 1014.9 hPa Calm     72% 0.0 mm 0 W/m2
00:33 18.2 °C 13.1 °C 1014.6 hPa Calm     72% 0.0 mm 0 W/m2
00:38 18.1 °C 13 °C 1014.6 hPa Calm     72% 0.0 mm 0 W/m2
00:43 18 °C 13.1 °C 1014.9 hPa Calm   1.6 km/h 73% 0.0 mm 0 W/m2
00:48 17.9 °C 13 °C 1014.9 hPa Calm     73% 0.0 mm 0 W/m2
00:53 17.9 °C 13 °C 1014.6 hPa Calm   1.6 km/h 73% 0.0 mm 0 W/m2
00:58 17.9 °C 13 °C 1014.6 hPa Calm     73% 0.0 mm 0 W/m2
01:03 17.9 °C 13.2 °C 1014.6 hPa WSW 1.4 km/h 3.2 km/h 74% 0.0 mm 0 W/m2
01:08 18 °C 13.3 °C 1014.6 hPa Calm   1.6 km/h 74% 0.0 mm 0 W/m2
01:13 18 °C 13.3 °C 1014.6 hPa Calm   3.2 km/h 74% 0.0 mm 0 W/m2
01:18 18.1 °C 13.6 °C 1014.6 hPa Calm     75% 0.0 mm 0 W/m2
01:23 18 °C 13.5 °C 1014.6 hPa Calm     75% 0.0 mm 0 W/m2
01:29 18 °C 13.5 °C 1014.6 hPa Calm     75% 0.0 mm 0 W/m2
01:34 18 °C 13.5 °C 1014.6 hPa Calm     75% 0.0 mm 0 W/m2
01:39 18 °C 13.5 °C 1014.6 hPa Calm     75% 0.0 mm 0 W/m2
01:44 18 °C 13.5 °C 1014.6 hPa Calm     75% 0.0 mm 0 W/m2
01:49 18 °C 13.7 °C 1014.6 hPa Calm     76% 0.0 mm 0 W/m2
01:54 18 °C 13.5 °C 1014.2 hPa Calm     75% 0.0 mm 0 W/m2
01:59 18.1 °C 13.6 °C 1014.2 hPa Calm     75% 0.0 mm 0 W/m2
02:04 18.1 °C 13.6 °C 1014.2 hPa Calm     75% 0.0 mm 0 W/m2
02:09 18.2 °C 13.9 °C 1014.2 hPa Calm     76% 0.0 mm 0 W/m2
02:14 18.2 °C 13.9 °C 1014.2 hPa Calm     76% 0.0 mm 0 W/m2
02:19 18.2 °C 13.7 °C 1014.6 hPa Calm     75% 0.0 mm 0 W/m2
02:24 18.2 °C 13.9 °C 1014.6 hPa Calm     76% 0.0 mm 0 W/m2
02:29 18.2 °C 13.9 °C 1014.6 hPa Calm     76% 0.0 mm 0 W/m2
02:34 18.2 °C 13.9 °C 1014.2 hPa Calm     76% 0.0 mm 0 W/m2
02:39 18.2 °C 14.1 °C 1014.2 hPa Calm     77% 0.0 mm 0 W/m2
02:44 18.2 °C 13.9 °C 1014.2 hPa Calm     76% 0.0 mm 0 W/m2
02:49 18.1 °C 13.8 °C 1014.2 hPa Calm     76% 0.0 mm 0 W/m2
02:54 18.1 °C 13.8 °C 1014.2 hPa Calm     76% 0.0 mm 0 W/m2
02:59 18.1 °C 13.8 °C 1014.2 hPa Calm     76% 0.0 mm 0 W/m2
03:04 18.1 °C 13.8 °C 1014.2 hPa Calm     76% 0.0 mm 0 W/m2
03:09 18.1 °C 13.6 °C 1014.2 hPa Calm     75% 0.0 mm 0 W/m2
03:14 18.1 °C 13.6 °C 1014.2 hPa Calm     75% 0.0 mm 0 W/m2
03:19 18.1 °C 13.4 °C 1013.9 hPa Calm     74% 0.0 mm 0 W/m2
03:24 18.1 °C 13.2 °C 1013.9 hPa Calm     73% 0.0 mm 0 W/m2
03:29 18.1 °C 13.2 °C 1013.9 hPa Calm     73% 0.0 mm 0 W/m2
03:34 18.2 °C 13.1 °C 1013.9 hPa Calm     72% 0.0 mm 0 W/m2
03:39 18.2 °C 13.1 °C 1013.9 hPa Calm     72% 0.0 mm 0 W/m2
03:44 18.3 °C 13 °C 1013.5 hPa Calm     71% 0.0 mm 0 W/m2
03:49 18.3 °C 12.7 °C 1013.5 hPa Calm     70% 0.0 mm 0 W/m2
03:54 18.3 °C 13.2 °C 1013.5 hPa Calm     72% 0.0 mm 0 W/m2
03:59 18.4 °C 13 °C 1013.5 hPa Calm     71% 0.0 mm 0 W/m2
04:04 18.4 °C 12.8 °C 1013.5 hPa Calm     70% 0.0 mm 0 W/m2
04:09 18.4 °C 12.8 °C 1013.2 hPa Calm     70% 0.0 mm 0 W/m2
04:14 18.5 °C 12.9 °C 1013.2 hPa Calm     70% 0.0 mm 0 W/m2
04:19 18.5 °C 12.7 °C 1013.2 hPa Calm     69% 0.0 mm 0 W/m2
04:24 18.5 °C 12.7 °C 1013.2 hPa Calm     69% 0.0 mm 0 W/m2
04:29 18.5 °C 13.4 °C 1013.2 hPa Calm     72% 0.0 mm 0 W/m2
04:34 18.6 °C 13.7 °C 1013.2 hPa Calm     73% 0.0 mm 0 W/m2
04:39 18.4 °C 13.3 °C 1013.2 hPa Calm     72% 0.0 mm 0 W/m2
04:44 18.4 °C 13.5 °C 1013.2 hPa Calm     73% 0.0 mm 0 W/m2
04:49 18.4 °C 13.5 °C 1013.2 hPa Calm     73% 0.0 mm 0 W/m2
04:54 18.3 °C 13.4 °C 1013.2 hPa Calm     73% 0.0 mm 0 W/m2
04:59 18.3 °C 13.4 °C 1013.2 hPa Calm     73% 0.0 mm 0 W/m2
05:04 18.3 °C 13.4 °C 1013.2 hPa Calm     73% 0.0 mm 0 W/m2
05:09 18.3 °C 13.4 °C 1012.9 hPa Calm     73% 0.0 mm 0 W/m2
05:14 18.3 °C 13.4 °C 1013.2 hPa Calm     73% 0.0 mm 0 W/m2
05:19 18.2 °C 13.3 °C 1012.9 hPa Calm     73% 0.0 mm 0 W/m2
05:24 18.2 °C 13.5 °C 1012.9 hPa Calm     74% 0.0 mm 0 W/m2
05:29 18.1 °C 13.4 °C 1012.9 hPa Calm     74% 0.0 mm 0 W/m2
05:34 18 °C 13.3 °C 1012.9 hPa Calm     74% 0.0 mm 0 W/m2
05:39 17.9 °C 13 °C 1012.9 hPa Calm     73% 0.0 mm 0 W/m2
05:44 17.8 °C 12.5 °C 1012.9 hPa Calm     71% 0.0 mm 5 W/m2
05:49 17.6 °C 12.3 °C 1012.9 hPa Calm     71% 0.0 mm 7 W/m2
05:54 17.6 °C 12.7 °C 1012.9 hPa Calm     73% 0.0 mm 7 W/m2
05:59 17.5 °C 12.8 °C 1012.9 hPa Calm     74% 0.0 mm 9 W/m2
06:04 17.4 °C 12.5 °C 1012.9 hPa Calm     73% 0.0 mm 12 W/m2
06:09 17.3 °C 12.2 °C 1012.9 hPa Calm     72% 0.0 mm 16 W/m2
06:14 17.2 °C 12.1 °C 1012.9 hPa Calm     72% 0.0 mm 21 W/m2
06:19 17.2 °C 12.1 °C 1012.9 hPa Calm     72% 0.0 mm 25 W/m2
06:24 17.2 °C 12.1 °C 1012.9 hPa Calm     72% 0.0 mm 28 W/m2
06:29 17.2 °C 12.3 °C 1012.9 hPa Calm     73% 0.0 mm 26 W/m2
06:34 17.2 °C 12.3 °C 1012.9 hPa Calm     73% 0.0 mm 26 W/m2
06:39 17.2 °C 12.5 °C 1012.9 hPa Calm     74% 0.0 mm 32 W/m2
Juneau County Weather
Compliments of Weather Underground - 2 mb